createdAt,value
2018-09-09T00:01:28.195Z,2.33
2018-09-09T00:03:56.766Z,1.90
2018-09-09T00:06:25.378Z,2.20
2018-09-09T00:08:53.966Z,2.43
2018-09-09T00:11:22.563Z,1.80
2018-09-09T00:13:51.117Z,2.37
2018-09-09T00:16:19.920Z,2.20
2018-09-09T00:18:48.524Z,2.17
2018-09-09T00:21:17.134Z,1.73
2018-09-09T00:23:45.737Z,2.90
2018-09-09T00:26:14.329Z,2.00
2018-09-09T00:28:42.949Z,2.00
2018-09-09T00:31:11.532Z,1.80
2018-09-09T00:33:40.093Z,2.00
2018-09-09T00:36:08.710Z,2.10
2018-09-09T00:38:37.269Z,2.30
2018-09-09T00:41:06.008Z,1.80
2018-09-09T00:43:34.573Z,2.70
2018-09-09T00:46:03.169Z,2.47
2018-09-09T00:48:31.732Z,2.10
2018-09-09T00:51:05.435Z,2.00
2018-09-09T00:53:39.398Z,2.37
2018-09-09T00:56:08.009Z,2.00
2018-09-09T00:58:36.577Z,2.47
2018-09-09T01:01:10.594Z,2.40
2018-09-09T01:03:39.385Z,1.80
2018-09-09T01:06:08.155Z,1.90
2018-09-09T01:08:36.752Z,2.70
2018-09-09T01:11:05.410Z,2.53
2018-09-09T01:13:33.993Z,2.50
2018-09-09T01:16:02.573Z,1.80
2018-09-09T01:18:31.385Z,3.20
2018-09-09T01:20:59.962Z,2.37
2018-09-09T01:23:28.569Z,2.60
2018-09-09T01:25:57.268Z,2.57
2018-09-09T01:28:25.850Z,2.80
2018-09-09T01:30:54.462Z,2.77
2018-09-09T01:33:23.077Z,2.33
2018-09-09T01:35:51.642Z,2.27
2018-09-09T01:38:21.245Z,2.00
2018-09-09T01:40:49.864Z,2.30
2018-09-09T01:43:18.454Z,2.60
2018-09-09T01:45:47.022Z,2.00
2018-09-09T01:48:15.605Z,2.33
2018-09-09T01:50:44.178Z,2.70
2018-09-09T01:53:12.768Z,2.70
2018-09-09T01:55:41.348Z,2.40
2018-09-09T01:58:09.938Z,2.70
2018-09-09T02:00:38.515Z,2.37
2018-09-09T02:03:07.136Z,2.20
2018-09-09T02:05:35.692Z,3.17
2018-09-09T02:08:04.285Z,2.73
2018-09-09T02:10:32.862Z,2.63
2018-09-09T02:13:01.441Z,2.70
2018-09-09T02:15:30.015Z,2.80
2018-09-09T02:17:58.604Z,2.23
2018-09-09T02:20:27.177Z,2.50
2018-09-09T02:22:55.781Z,2.70
2018-09-09T02:25:24.357Z,2.77
2018-09-09T02:27:52.936Z,2.63
2018-09-09T02:30:21.527Z,2.90
2018-09-09T02:32:50.139Z,2.30
2018-09-09T02:35:18.735Z,2.67
2018-09-09T02:37:47.329Z,2.80
2018-09-09T02:40:15.920Z,2.30
2018-09-09T02:42:44.533Z,2.67
2018-09-09T02:45:13.120Z,2.90
2018-09-09T02:47:41.695Z,2.70
2018-09-09T02:50:10.290Z,2.47
2018-09-09T02:52:38.853Z,2.60
2018-09-09T02:55:07.474Z,2.70
2018-09-09T02:57:36.058Z,3.00
2018-09-09T03:00:05.037Z,2.80
2018-09-09T03:02:33.604Z,2.73
2018-09-09T03:05:02.227Z,2.73
2018-09-09T03:07:30.786Z,2.60
2018-09-09T03:09:59.390Z,2.60
2018-09-09T03:12:28.516Z,3.20
2018-09-09T03:14:57.110Z,3.20
2018-09-09T03:17:25.682Z,3.10
2018-09-09T03:19:54.319Z,3.27
2018-09-09T03:22:22.949Z,2.83
2018-09-09T03:24:51.540Z,2.17
2018-09-09T03:27:20.121Z,2.17
2018-09-09T03:29:48.724Z,2.70
2018-09-09T03:32:17.337Z,3.20
2018-09-09T03:34:45.940Z,2.90
2018-09-09T03:37:14.533Z,2.73
2018-09-09T03:39:43.365Z,2.70
2018-09-09T03:42:11.932Z,3.20
2018-09-09T03:44:40.522Z,3.20
2018-09-09T03:47:09.084Z,2.90
2018-09-09T03:49:37.684Z,2.40
2018-09-09T03:52:06.293Z,2.80
2018-09-09T03:54:34.859Z,2.27
2018-09-09T03:57:03.482Z,2.80
2018-09-09T03:59:32.046Z,2.97
2018-09-09T04:02:00.651Z,2.70
2018-09-09T04:04:29.233Z,3.13
2018-09-09T04:06:57.844Z,3.20
2018-09-09T04:09:26.411Z,2.77
2018-09-09T04:11:55.003Z,3.30
2018-09-09T04:14:23.579Z,2.93
2018-09-09T04:16:52.215Z,2.70
2018-09-09T04:19:20.797Z,2.90
2018-09-09T04:21:51.537Z,3.20
2018-09-09T04:24:21.213Z,3.17
2018-09-09T04:26:49.868Z,2.60
2018-09-09T04:29:18.446Z,3.23
2018-09-09T04:31:47.040Z,2.80
2018-09-09T04:34:16.109Z,3.17
2018-09-09T04:36:44.751Z,3.27
2018-09-09T04:39:14.344Z,2.30
2018-09-09T04:41:42.993Z,3.23
2018-09-09T04:44:13.018Z,2.57
2018-09-09T04:46:41.655Z,3.43
2018-09-09T04:49:10.709Z,2.93
2018-09-09T04:51:39.743Z,2.80
2018-09-09T04:54:08.373Z,2.53
2018-09-09T04:56:36.970Z,2.40
2018-09-09T04:59:05.590Z,3.03
2018-09-09T05:01:34.181Z,3.60
2018-09-09T05:04:02.761Z,2.97
2018-09-09T05:06:31.347Z,2.90
2018-09-09T05:08:59.960Z,2.80
2018-09-09T05:11:28.557Z,2.97
2018-09-09T05:13:57.152Z,2.43
2018-09-09T05:16:25.725Z,2.80
2018-09-09T05:18:54.361Z,2.80
2018-09-09T05:21:22.911Z,3.80
2018-09-09T05:23:51.612Z,2.67
2018-09-09T05:26:20.327Z,3.50
2018-09-09T05:28:48.920Z,3.27
2018-09-09T05:31:17.657Z,3.40
2018-09-09T05:33:46.527Z,3.20
2018-09-09T05:36:15.112Z,2.70
2018-09-09T05:38:44.020Z,3.40
2018-09-09T05:41:12.598Z,2.90
2018-09-09T05:43:41.200Z,2.50
2018-09-09T05:46:09.823Z,3.73
2018-09-09T05:48:38.449Z,2.70
2018-09-09T05:51:07.413Z,2.77
2018-09-09T05:53:36.009Z,3.30
2018-09-09T05:56:04.659Z,2.77
2018-09-09T05:58:33.373Z,2.70
2018-09-09T06:01:01.999Z,3.70
2018-09-09T06:03:30.596Z,3.60
2018-09-09T06:05:59.170Z,3.07
2018-09-09T06:08:27.767Z,3.00
2018-09-09T06:10:56.352Z,3.33
2018-09-09T06:13:26.260Z,3.43
2018-09-09T06:15:54.845Z,2.30
2018-09-09T06:18:23.460Z,3.23
2018-09-09T06:20:52.728Z,2.87
2018-09-09T06:23:21.322Z,2.50
2018-09-09T06:25:49.913Z,2.80
2018-09-09T06:28:18.594Z,3.70
2018-09-09T06:30:47.176Z,9.10
2018-09-09T06:33:15.745Z,13.63
2018-09-09T06:35:44.388Z,4.50
2018-09-09T06:38:12.987Z,3.63
2018-09-09T06:40:41.592Z,3.27
2018-09-09T06:43:10.828Z,3.40
2018-09-09T06:45:39.420Z,2.43
2018-09-09T06:48:08.009Z,3.00
2018-09-09T06:50:36.613Z,2.70
2018-09-09T06:53:05.204Z,3.43
2018-09-09T06:55:33.834Z,3.30
2018-09-09T06:58:02.506Z,3.57
2018-09-09T07:00:31.365Z,5.10
2018-09-09T07:03:00.559Z,3.40
2018-09-09T07:05:29.173Z,2.43
2018-09-09T07:07:57.730Z,3.63
2018-09-09T07:10:26.350Z,3.63
2018-09-09T07:12:54.925Z,3.50
2018-09-09T07:15:23.534Z,2.50
2018-09-09T07:17:52.135Z,2.40
2018-09-09T07:20:20.877Z,2.50
2018-09-09T07:22:49.468Z,2.20
2018-09-09T07:25:18.093Z,2.60
2018-09-09T07:27:46.666Z,2.70
2018-09-09T07:30:15.261Z,2.80
2018-09-09T07:32:43.845Z,2.23
2018-09-09T07:35:12.546Z,3.33
2018-09-09T07:37:41.125Z,2.17
2018-09-09T07:40:09.760Z,2.30
2018-09-09T07:42:38.359Z,2.50
2018-09-09T07:45:06.989Z,2.50
2018-09-09T07:47:36.165Z,2.10
2018-09-09T07:50:05.800Z,2.40
2018-09-09T07:52:34.395Z,1.83
2018-09-09T07:55:03.001Z,3.33
2018-09-09T07:57:31.642Z,2.33
2018-09-09T08:00:00.220Z,2.20
2018-09-09T08:02:29.009Z,2.10
2018-09-09T08:04:57.622Z,2.20
2018-09-09T08:07:26.251Z,2.07
2018-09-09T08:09:54.936Z,1.97
2018-09-09T08:12:23.512Z,2.10
2018-09-09T08:14:52.090Z,1.77
2018-09-09T08:17:20.684Z,2.30
2018-09-09T08:19:49.263Z,2.70
2018-09-09T08:22:17.855Z,2.03
2018-09-09T08:24:46.404Z,2.10
2018-09-09T08:27:14.996Z,2.20
2018-09-09T08:29:43.562Z,2.13
2018-09-09T08:32:12.158Z,2.60
2018-09-09T08:34:40.754Z,2.67
2018-09-09T08:37:09.389Z,2.00
2018-09-09T08:39:37.957Z,1.90
2018-09-09T08:42:06.619Z,2.23
2018-09-09T08:44:35.188Z,1.77
2018-09-09T08:47:03.865Z,1.70
2018-09-09T08:49:32.425Z,2.00
2018-09-09T08:52:01.035Z,1.93
2018-09-09T08:54:29.880Z,1.37
2018-09-09T08:56:58.467Z,2.10
2018-09-09T08:59:27.077Z,2.00
2018-09-09T09:01:55.660Z,1.63
2018-09-09T09:04:24.242Z,2.17
2018-09-09T09:06:52.832Z,1.80
2018-09-09T09:09:21.426Z,1.93
2018-09-09T09:11:50.033Z,2.03
2018-09-09T09:14:18.964Z,2.17
2018-09-09T09:16:47.566Z,1.83
2018-09-09T09:19:16.128Z,1.90
2018-09-09T09:21:44.753Z,2.07
2018-09-09T09:24:13.365Z,2.70
2018-09-09T09:26:41.955Z,1.90
2018-09-09T09:29:10.577Z,2.10
2018-09-09T09:31:39.161Z,2.00
2018-09-09T09:34:07.814Z,1.80
2018-09-09T09:36:36.414Z,2.00
2018-09-09T09:39:06.717Z,1.90
2018-09-09T09:41:35.296Z,2.07
2018-09-09T09:44:03.912Z,2.83
2018-09-09T09:46:32.505Z,2.27
2018-09-09T09:49:01.119Z,2.13
2018-09-09T09:51:29.837Z,2.13
2018-09-09T09:53:58.437Z,2.10
2018-09-09T09:56:27.000Z,2.17
2018-09-09T09:58:55.606Z,1.40
2018-09-09T10:01:24.195Z,2.00
2018-09-09T10:03:52.799Z,2.17
2018-09-09T10:06:22.372Z,2.87
2018-09-09T10:08:50.954Z,2.43
2018-09-09T10:11:19.609Z,2.20
2018-09-09T10:13:48.201Z,2.07
2018-09-09T10:16:16.933Z,2.10
2018-09-09T10:18:45.525Z,1.73
2018-09-09T10:21:14.084Z,1.90
2018-09-09T10:23:42.703Z,1.60
2018-09-09T10:26:11.321Z,2.20
2018-09-09T10:28:39.923Z,1.90
2018-09-09T10:31:08.504Z,1.73
2018-09-09T10:33:37.102Z,1.77
2018-09-09T10:36:05.794Z,1.33
2018-09-09T10:38:34.413Z,1.70
2018-09-09T10:41:03.020Z,2.27
2018-09-09T10:43:31.592Z,1.77
2018-09-09T10:46:00.235Z,1.63
2018-09-09T10:48:29.117Z,1.93
2018-09-09T10:50:57.709Z,1.20
2018-09-09T10:53:26.290Z,1.43
2018-09-09T10:55:54.892Z,1.40
2018-09-09T10:58:23.456Z,1.67
2018-09-09T11:00:52.057Z,1.50
2018-09-09T11:03:20.668Z,1.13
2018-09-09T11:05:49.257Z,1.50
2018-09-09T11:08:18.207Z,1.40
2018-09-09T11:10:47.058Z,1.47
2018-09-09T11:13:15.626Z,1.90
2018-09-09T11:15:45.289Z,1.90
2018-09-09T11:18:13.865Z,1.60
2018-09-09T11:20:42.461Z,1.30
2018-09-09T11:23:11.129Z,1.40
2018-09-09T11:25:39.724Z,1.47
2018-09-09T11:28:08.308Z,1.77
2018-09-09T11:30:36.881Z,1.53
2018-09-09T11:33:05.596Z,1.53
2018-09-09T11:35:34.203Z,1.43
2018-09-09T11:38:02.843Z,1.47
2018-09-09T11:40:31.511Z,1.20
2018-09-09T11:43:00.111Z,1.20
2018-09-09T11:45:28.709Z,1.37
2018-09-09T11:47:57.273Z,1.30
2018-09-09T11:50:25.893Z,1.47
2018-09-09T11:52:54.479Z,2.23
2018-09-09T11:55:23.117Z,1.40
2018-09-09T11:57:51.746Z,1.37
2018-09-09T12:00:20.360Z,1.87
2018-09-09T12:02:48.938Z,1.60
2018-09-09T12:05:17.531Z,4.20
2018-09-09T12:07:46.124Z,2.70
2018-09-09T12:10:14.704Z,2.23
2018-09-09T12:12:43.317Z,1.50
2018-09-09T12:15:11.909Z,2.30
2018-09-09T12:17:40.494Z,2.00
2018-09-09T12:20:09.104Z,1.10
2018-09-09T12:22:37.688Z,1.73
2018-09-09T12:25:06.293Z,1.40
2018-09-09T12:27:34.872Z,1.40
2018-09-09T12:30:03.513Z,1.43
2018-09-09T12:32:32.175Z,1.80
2018-09-09T12:35:00.730Z,1.83
2018-09-09T12:37:29.425Z,1.10
2018-09-09T12:39:58.015Z,1.40
2018-09-09T12:42:28.230Z,1.40
2018-09-09T12:45:02.126Z,1.27
2018-09-09T12:47:36.049Z,1.20
2018-09-09T12:50:04.915Z,1.53
2018-09-09T12:52:33.508Z,1.40
2018-09-09T12:55:02.074Z,1.60
2018-09-09T12:57:30.695Z,1.43
2018-09-09T12:59:59.337Z,1.40
2018-09-09T13:02:27.928Z,1.83
2018-09-09T13:04:56.513Z,1.37
2018-09-09T13:07:25.169Z,1.50
2018-09-09T13:09:53.912Z,1.43
2018-09-09T13:12:23.344Z,1.37
2018-09-09T13:14:51.924Z,1.37
2018-09-09T13:17:20.511Z,1.10
2018-09-09T13:19:49.100Z,1.10
2018-09-09T13:22:17.702Z,1.33
2018-09-09T13:24:46.280Z,1.40
2018-09-09T13:27:14.904Z,1.20
2018-09-09T13:29:43.480Z,1.50
2018-09-09T13:32:13.744Z,1.57
2018-09-09T13:34:42.325Z,1.30
2018-09-09T13:37:11.220Z,1.20
2018-09-09T13:39:39.836Z,1.30
2018-09-09T13:42:08.452Z,1.27
2018-09-09T13:44:38.611Z,1.30
2018-09-09T13:47:07.349Z,1.33
2018-09-09T13:49:36.265Z,1.40
2018-09-09T13:52:04.969Z,1.20
2018-09-09T13:54:33.524Z,1.60
2018-09-09T13:57:02.144Z,1.30
2018-09-09T13:59:31.020Z,1.57
2018-09-09T14:01:59.679Z,1.60
2018-09-09T14:04:28.322Z,1.77
2018-09-09T14:06:56.951Z,1.43
2018-09-09T14:09:25.527Z,1.63
2018-09-09T14:11:54.109Z,1.37
2018-09-09T14:14:22.737Z,1.20
2018-09-09T14:16:51.439Z,1.60
2018-09-09T14:19:20.055Z,1.13
2018-09-09T14:21:48.654Z,1.30
2018-09-09T14:24:17.250Z,1.70
2018-09-09T14:26:45.853Z,1.43
2018-09-09T14:29:14.546Z,1.57
2018-09-09T14:31:43.126Z,1.60
2018-09-09T14:34:11.748Z,2.00
2018-09-09T14:36:40.369Z,1.60
2018-09-09T14:39:09.785Z,1.60
2018-09-09T14:41:38.378Z,1.10
2018-09-09T14:44:07.053Z,1.33
2018-09-09T14:46:35.690Z,1.60
2018-09-09T14:49:04.292Z,1.40
2018-09-09T14:51:32.851Z,1.00
2018-09-09T14:54:01.440Z,1.50
2018-09-09T14:56:30.000Z,1.40
2018-09-09T14:58:58.653Z,1.70
2018-09-09T15:01:27.256Z,1.40
2018-09-09T15:03:55.890Z,1.20
2018-09-09T15:06:24.478Z,1.30
2018-09-09T15:08:53.066Z,1.13
2018-09-09T15:11:21.669Z,1.40
2018-09-09T15:13:50.331Z,1.57
2018-09-09T15:16:18.903Z,1.30
2018-09-09T15:18:47.539Z,1.60
2018-09-09T15:21:16.164Z,1.60
2018-09-09T15:23:44.772Z,1.70
2018-09-09T15:26:13.367Z,0.90
2018-09-09T15:28:42.051Z,1.57
2018-09-09T15:31:10.586Z,1.50
2018-09-09T15:33:39.190Z,1.40
2018-09-09T15:36:07.850Z,1.40
2018-09-09T15:38:36.469Z,1.10
2018-09-09T15:41:05.049Z,1.30
2018-09-09T15:43:33.649Z,1.27
2018-09-09T15:46:02.268Z,1.47
2018-09-09T15:48:30.848Z,1.40
2018-09-09T15:50:59.436Z,1.00
2018-09-09T15:53:28.541Z,1.20
2018-09-09T15:55:57.140Z,2.60
2018-09-09T15:58:25.751Z,1.57
2018-09-09T16:00:54.374Z,1.23
2018-09-09T16:03:23.105Z,1.57
2018-09-09T16:05:51.747Z,1.17
2018-09-09T16:08:20.366Z,1.40
2018-09-09T16:10:48.955Z,1.37
2018-09-09T16:13:17.535Z,1.17
2018-09-09T16:15:46.195Z,1.40
2018-09-09T16:18:14.769Z,1.50
2018-09-09T16:20:43.358Z,3.90
2018-09-09T16:23:11.929Z,2.70
2018-09-09T16:25:52.135Z,1.53
2018-09-09T16:28:21.678Z,1.87
2018-09-09T16:30:50.311Z,1.53
2018-09-09T16:33:18.895Z,1.40
2018-09-09T16:35:47.481Z,1.83
2018-09-09T16:38:16.074Z,1.70
2018-09-09T16:40:44.667Z,1.27
2018-09-09T16:43:13.270Z,2.00
2018-09-09T16:45:41.880Z,1.77
2018-09-09T16:48:10.465Z,1.50
2018-09-09T16:50:39.065Z,1.50
2018-09-09T16:53:07.646Z,1.47
2018-09-09T16:55:36.236Z,1.20
2018-09-09T16:58:04.833Z,1.37
2018-09-09T17:00:33.449Z,1.53
2018-09-09T17:03:02.017Z,1.60
2018-09-09T17:05:30.656Z,1.77
2018-09-09T17:07:59.482Z,1.60
2018-09-09T17:10:28.084Z,1.60
2018-09-09T17:12:56.652Z,1.63
2018-09-09T17:15:25.241Z,1.93
2018-09-09T17:17:54.184Z,1.87
2018-09-09T17:20:22.808Z,1.97
2018-09-09T17:22:51.410Z,1.60
2018-09-09T17:25:20.002Z,1.93
2018-09-09T17:27:48.714Z,1.40
2018-09-09T17:30:17.298Z,2.17
2018-09-09T17:32:45.893Z,1.50
2018-09-09T17:35:14.458Z,1.20
2018-09-09T17:37:43.073Z,2.00
2018-09-09T17:40:11.652Z,1.47
2018-09-09T17:42:40.245Z,1.27
2018-09-09T17:45:09.468Z,1.17
2018-09-09T17:47:38.123Z,1.40
2018-09-09T17:50:07.109Z,0.90
2018-09-09T17:52:35.706Z,1.40
2018-09-09T17:55:04.384Z,1.70
2018-09-09T17:57:33.050Z,1.20
2018-09-09T18:00:01.748Z,1.43
2018-09-09T18:02:30.416Z,1.47
2018-09-09T18:04:58.993Z,1.47
2018-09-09T18:07:27.747Z,1.87
2018-09-09T18:09:56.577Z,1.57
2018-09-09T18:12:25.211Z,1.83
2018-09-09T18:14:53.797Z,1.53
2018-09-09T18:17:22.401Z,1.83
2018-09-09T18:19:50.976Z,1.27
2018-09-09T18:22:20.264Z,1.93
2018-09-09T18:24:48.972Z,1.67
2018-09-09T18:27:17.570Z,1.80
2018-09-09T18:29:46.184Z,1.47
2018-09-09T18:32:14.778Z,2.00
2018-09-09T18:34:43.383Z,1.40
2018-09-09T18:37:12.021Z,1.47
2018-09-09T18:39:40.606Z,1.87
2018-09-09T18:42:09.547Z,1.33
2018-09-09T18:44:38.146Z,1.60
2018-09-09T18:47:06.750Z,1.43
2018-09-09T18:49:35.376Z,1.60
2018-09-09T18:52:03.979Z,1.60
2018-09-09T18:54:32.562Z,1.67
2018-09-09T18:57:01.128Z,1.60
2018-09-09T18:59:29.725Z,1.40
2018-09-09T19:01:58.530Z,1.70
2018-09-09T19:04:27.154Z,1.30
2018-09-09T19:06:55.727Z,1.50
2018-09-09T19:09:24.334Z,1.80
2018-09-09T19:11:52.987Z,1.77
2018-09-09T19:14:24.933Z,1.63
2018-09-09T19:16:56.042Z,1.70
2018-09-09T19:19:24.632Z,1.50
2018-09-09T19:21:53.235Z,1.70
2018-09-09T19:24:22.058Z,1.70
2018-09-09T19:26:50.655Z,2.37
2018-09-09T19:29:19.254Z,1.63
2018-09-09T19:31:47.852Z,1.73
2018-09-09T19:34:16.466Z,1.83
2018-09-09T19:36:50.826Z,2.00
2018-09-09T19:39:19.425Z,1.70
2018-09-09T19:41:48.034Z,1.83
2018-09-09T19:44:16.735Z,2.10
2018-09-09T19:46:45.309Z,2.27
2018-09-09T19:49:13.922Z,1.50
2018-09-09T19:51:42.805Z,1.50
2018-09-09T19:54:11.411Z,1.30
2018-09-09T19:56:40.201Z,1.53
2018-09-09T19:59:08.890Z,1.50
2018-09-09T20:01:37.477Z,1.70
2018-09-09T20:04:06.100Z,1.80
2018-09-09T20:06:34.684Z,1.50
2018-09-09T20:09:03.426Z,1.70
2018-09-09T20:11:32.979Z,1.50
2018-09-09T20:14:01.569Z,2.97
2018-09-09T20:16:30.153Z,2.33
2018-09-09T20:18:58.762Z,2.10
2018-09-09T20:21:27.327Z,1.80
2018-09-09T20:23:55.925Z,2.20
2018-09-09T20:26:24.484Z,2.00
2018-09-09T20:28:53.058Z,1.70
2018-09-09T20:31:21.648Z,1.40
2018-09-09T20:33:50.211Z,1.70
2018-09-09T20:36:18.881Z,1.50
2018-09-09T20:38:47.524Z,1.67
2018-09-09T20:41:16.060Z,1.73
2018-09-09T20:43:44.637Z,2.33
2018-09-09T20:46:13.281Z,1.83
2018-09-09T20:48:41.846Z,1.70
2018-09-09T20:51:10.444Z,1.83
2018-09-09T20:53:39.016Z,1.87
2018-09-09T20:56:08.076Z,1.47
2018-09-09T20:58:36.650Z,1.93
2018-09-09T21:01:05.850Z,1.53
2018-09-09T21:03:34.458Z,1.87
2018-09-09T21:06:03.085Z,1.80
2018-09-09T21:08:31.651Z,1.37
2018-09-09T21:11:00.256Z,1.40
2018-09-09T21:13:28.818Z,1.80
2018-09-09T21:15:57.410Z,2.03
2018-09-09T21:18:26.025Z,1.40
2018-09-09T21:20:54.609Z,1.83
2018-09-09T21:23:23.249Z,1.83
2018-09-09T21:25:52.089Z,1.77
2018-09-09T21:28:20.912Z,1.77
2018-09-09T21:30:49.500Z,1.80
2018-09-09T21:33:18.125Z,1.73
2018-09-09T21:35:46.729Z,1.53
2018-09-09T21:38:15.321Z,1.77
2018-09-09T21:40:43.912Z,1.63
2018-09-09T21:43:12.850Z,1.90
2018-09-09T21:45:41.439Z,2.37
2018-09-09T21:48:10.004Z,2.00
2018-09-09T21:50:38.618Z,1.77
2018-09-09T21:53:07.254Z,2.20
2018-09-09T21:55:35.819Z,1.70
2018-09-09T21:58:04.433Z,1.67
2018-09-09T22:00:35.708Z,1.77
2018-09-09T22:03:04.299Z,2.13
2018-09-09T22:05:32.901Z,1.87
2018-09-09T22:08:01.517Z,1.67
2018-09-09T22:10:30.645Z,1.20
2018-09-09T22:12:59.226Z,1.87
2018-09-09T22:15:27.796Z,1.60
2018-09-09T22:17:56.450Z,1.87
2018-09-09T22:20:25.074Z,1.67
2018-09-09T22:22:53.690Z,1.70
2018-09-09T22:25:22.260Z,1.60
2018-09-09T22:27:50.840Z,2.10
2018-09-09T22:30:19.412Z,2.20
2018-09-09T22:32:48.042Z,1.80
2018-09-09T22:35:16.610Z,2.37
2018-09-09T22:37:45.260Z,1.63
2018-09-09T22:40:13.858Z,1.67
2018-09-09T22:42:42.444Z,1.60
2018-09-09T22:45:11.011Z,1.90
2018-09-09T22:47:39.602Z,2.00
2018-09-09T22:50:08.208Z,1.60
2018-09-09T22:52:36.841Z,1.90
2018-09-09T22:55:05.481Z,2.10
2018-09-09T22:57:34.369Z,2.00
2018-09-09T23:00:02.974Z,2.10
2018-09-09T23:02:31.624Z,1.80
2018-09-09T23:05:00.210Z,2.13
2018-09-09T23:07:28.798Z,1.97
2018-09-09T23:09:57.376Z,1.80
2018-09-09T23:12:25.972Z,1.67
2018-09-09T23:14:54.612Z,1.70
2018-09-09T23:17:23.161Z,1.63
2018-09-09T23:19:51.755Z,1.83
2018-09-09T23:22:20.470Z,1.57
2018-09-09T23:24:49.066Z,1.77
2018-09-09T23:27:17.637Z,1.47
2018-09-09T23:29:46.241Z,1.90
2018-09-09T23:32:14.816Z,2.37
2018-09-09T23:34:43.401Z,2.13
2018-09-09T23:37:12.014Z,1.57
2018-09-09T23:39:40.601Z,1.50
2018-09-09T23:42:09.171Z,2.10
2018-09-09T23:44:37.762Z,1.60
2018-09-09T23:47:06.528Z,1.80
2018-09-09T23:49:35.138Z,1.63
2018-09-09T23:52:03.884Z,1.43
2018-09-09T23:54:32.486Z,1.50
2018-09-09T23:57:01.042Z,1.77
2018-09-09T23:59:29.686Z,1.80
